Time;durP1;ratioP1;P1;durP2;ratioP2;P2;SDS_P1;SDS_P2;PMS_P1;PMS_P2;Temp;Humidity;BMP_temperature;BMP_pressure;BME280_temperature;BME280_humidity;BME280_pressure;Samples;Min_cycle;Max_cycle;Signal;HPM_P1;HPM_P2
2022/05/09 00:01:44;;;;;;;;;;;;;;;;;;5017814;28;19921;-68
2022/05/09 00:04:10;;;;;;;;;;;;;;;;;;5006315;28;20323;-67
2022/05/09 00:06:36;;;;;;;;;;;;;;;;;;5022774;28;19932;-67
2022/05/09 00:09:02;;;;;;;;;;;;;;;;;;5021405;28;19944;-68
2022/05/09 00:11:28;;;;;;;;;;;;;;;;;;5028966;28;20496;-68
2022/05/09 00:13:54;;;;;;;;;;;;;;;;;;5016200;28;19920;-68
2022/05/09 00:16:21;;;;;;;;;;;;;;;;;;5027195;28;20449;-68
2022/05/09 00:18:47;;;;;;;;;;;;;;;;;;5002233;28;19951;-68
2022/05/09 00:21:13;;;;;;;;;;;;;;;;;;5009573;28;20233;-68
2022/05/09 00:23:38;;;;;;;;;;;;;;;;;;5006379;28;19994;-68
2022/05/09 00:26:04;;;;;;;;;;;;;;;;;;5008557;28;19916;-68
2022/05/09 00:28:31;;;;;;;;;;;;;;;;;;5033370;28;20322;-68
2022/05/09 00:30:57;;;;;;;;;;;;;;;;;;5005252;28;19927;-68
2022/05/09 00:33:25;;;;;;;;;;;;;;;;;;5022037;28;19920;-68
2022/05/09 00:35:51;;;;;;;;;;;;;;;;;;5021776;28;19917;-68
2022/05/09 00:38:17;;;;;;;;;;;;;;;;;;5022465;28;19921;-68
2022/05/09 00:43:28;;;;;;;;;;;;;;;;;;5028120;28;19994;-67
2022/05/09 00:45:54;;;;;;;;;;;;;;;;;;5027655;28;19917;-68
2022/05/09 00:48:21;;;;;;;;;;;;;;;;;;5030666;28;19948;-68
2022/05/09 00:50:47;;;;;;;;;;;;;;;;;;5023558;28;19940;-68
2022/05/09 00:53:13;;;;;;;;;;;;;;;;;;5023082;28;19917;-68
2022/05/09 00:55:41;;;;;;;;;;;;;;;;;;5018419;28;19924;-68
2022/05/09 00:58:07;;;;;;;;;;;;;;;;;;5002734;28;20349;-67
2022/05/09 01:00:33;;;;;;;;;;;;;;;;;;5011161;28;20460;-68
2022/05/09 01:02:59;;;;;;;;;;;;;;;;;;5024863;28;19994;-68
2022/05/09 01:05:25;;;;;;;;;;;;;;;;;;5025408;28;19931;-68
2022/05/09 01:07:51;;;;;;;;;;;;;;;;;;5022948;28;19925;-67
2022/05/09 01:10:17;;;;;;;;;;;;;;;;;;5012937;28;19947;-67
2022/05/09 01:12:43;;;;;;;;;;;;;;;;;;5019769;28;19983;-67
2022/05/09 01:15:09;;;;;;;;;;;;;;;;;;5023831;28;19958;-68
2022/05/09 01:17:39;;;;;;;;;;;;;;;;;;5028850;28;20027;-68
2022/05/09 01:20:05;;;;;;;;;;;;;;;;;;5009094;28;19917;-68
2022/05/09 01:22:31;;;;;;;;;;;;;;;;;;5022314;28;19939;-68
2022/05/09 01:25:00;;;;;;;;;;;;;;;;;;5015816;28;20275;-68
2022/05/09 01:27:26;;;;;;;;;;;;;;;;;;5024324;28;19978;-68
2022/05/09 01:29:52;;;;;;;;;;;;;;;;;;5021126;28;21122;-68
2022/05/09 01:32:18;;;;;;;;;;;;;;;;;;5019874;28;19917;-68
2022/05/09 01:34:44;;;;;;;;;;;;;;;;;;5019683;28;20221;-68
2022/05/09 01:37:10;;;;;;;;;;;;;;;;;;5023494;28;20167;-68
2022/05/09 01:39:36;;;;;;;;;;;;;;;;;;5020697;28;20499;-68
2022/05/09 01:42:02;;;;;;;;;;;;;;;;;;5019304;28;19970;-68
2022/05/09 01:44:28;;;;;;;;;;;;;;;;;;5023571;28;19917;-68
2022/05/09 01:49:50;;;;;;;;;;;;;;;;;;4958447;28;19928;-68
2022/05/09 01:52:16;;;;;;;;;;;;;;;;;;4954942;28;20307;-68
2022/05/09 01:54:43;;;;;;;;;;;;;;;;;;4937900;28;19929;-68
2022/05/09 01:57:09;;;;;;;;;;;;;;;;;;4959638;28;20044;-68
2022/05/09 01:59:35;;;;;;;;;;;;;;;;;;4957186;28;19918;-68
2022/05/09 02:02:01;;;;;;;;;;;;;;;;;;4937558;28;19956;-68
2022/05/09 02:04:26;;;;;;;;;;;;;;;;;;4960421;28;19969;-68
2022/05/09 02:06:52;;;;;;;;;;;;;;;;;;4958744;28;20743;-68
2022/05/09 02:09:18;;;;;;;;;;;;;;;;;;4956363;28;20020;-68
2022/05/09 02:11:44;;;;;;;;;;;;;;;;;;4957295;28;20360;-68
2022/05/09 02:14:11;;;;;;;;;;;;;;;;;;4960302;28;20029;-68
2022/05/09 02:16:37;;;;;;;;;;;;;;;;;;4956175;28;20457;-67
2022/05/09 02:19:04;;;;;;;;;;;;;;;;;;4960006;28;19918;-68
2022/05/09 02:21:30;;;;;;;;;;;;;;;;;;4957910;28;20407;-68
2022/05/09 02:23:56;;;;;;;;;;;;;;;;;;4953112;28;19986;-68
2022/05/09 02:26:24;;;;;;;;;;;;;;;;;;4990951;28;20798;-67
2022/05/09 02:28:50;;;;;;;;;;;;;;;;;;5021473;28;19920;-68
2022/05/09 02:31:16;;;;;;;;;;;;;;;;;;5023440;28;19924;-68
2022/05/09 02:33:42;;;;;;;;;;;;;;;;;;5020377;28;20424;-68
2022/05/09 02:36:09;;;;;;;;;;;;;;;;;;5027164;28;19917;-70
2022/05/09 02:38:35;;;;;;;;;;;;;;;;;;5033585;28;19936;-67
2022/05/09 02:41:01;;;;;;;;;;;;;;;;;;5029234;28;19917;-68
2022/05/09 02:43:28;;;;;;;;;;;;;;;;;;5014232;28;19923;-68
2022/05/09 02:46:01;;;;;;;;;;;;;;;;;;5024420;28;19920;-67
2022/05/09 02:48:29;;;;;;;;;;;;;;;;;;5027798;28;19982;-68
2022/05/09 02:50:55;;;;;;;;;;;;;;;;;;5004245;28;20298;-68
2022/05/09 02:53:21;;;;;;;;;;;;;;;;;;5032751;28;19948;-68
2022/05/09 02:55:46;;;;;;;;;;;;;;;;;;5023942;28;20327;-69
2022/05/09 02:58:12;;;;;;;;;;;;;;;;;;5033390;28;19916;-68
2022/05/09 03:00:38;;;;;;;;;;;;;;;;;;5029516;28;19923;-68
2022/05/09 03:05:49;;;;;;;;;;;;;;;;;;5022408;28;19923;-68
2022/05/09 03:08:15;;;;;;;;;;;;;;;;;;5026453;28;19925;-68
2022/05/09 03:10:41;;;;;;;;;;;;;;;;;;5022679;28;20484;-68
2022/05/09 03:13:08;;;;;;;;;;;;;;;;;;5027078;28;19917;-68
2022/05/09 03:15:35;;;;;;;;;;;;;;;;;;5025101;28;19917;-68
2022/05/09 03:18:02;;;;;;;;;;;;;;;;;;5007698;28;19920;-68
2022/05/09 03:20:28;;;;;;;;;;;;;;;;;;5010764;28;20760;-68
2022/05/09 03:22:54;;;;;;;;;;;;;;;;;;5027459;28;20377;-68
2022/05/09 03:25:19;;;;;;;;;;;;;;;;;;5027973;28;20274;-68
2022/05/09 03:27:46;;;;;;;;;;;;;;;;;;5024068;28;19924;-68
2022/05/09 03:30:12;;;;;;;;;;;;;;;;;;5014831;28;19921;-68
2022/05/09 03:32:39;;;;;;;;;;;;;;;;;;5031329;28;19923;-68
2022/05/09 03:35:05;;;;;;;;;;;;;;;;;;5014136;28;19916;-68
2022/05/09 03:37:31;;;;;;;;;;;;;;;;;;5012170;28;19923;-68
2022/05/09 03:39:57;;;;;;;;;;;;;;;;;;5029471;28;20372;-68
2022/05/09 03:42:22;;;;;;;;;;;;;;;;;;5034284;28;20304;-68
2022/05/09 03:44:48;;;;;;;;;;;;;;;;;;5025346;28;20484;-69
2022/05/09 03:47:14;;;;;;;;;;;;;;;;;;5027295;28;19943;-68
2022/05/09 03:49:40;;;;;;;;;;;;;;;;;;5025786;28;20020;-68
2022/05/09 03:52:06;;;;;;;;;;;;;;;;;;5029882;28;19916;-68
2022/05/09 03:54:32;;;;;;;;;;;;;;;;;;5027688;28;20384;-68
2022/05/09 03:56:58;;;;;;;;;;;;;;;;;;5024471;28;20259;-68
2022/05/09 03:59:24;;;;;;;;;;;;;;;;;;5022795;28;19917;-70
2022/05/09 04:01:50;;;;;;;;;;;;;;;;;;5026659;28;19925;-67
2022/05/09 04:04:16;;;;;;;;;;;;;;;;;;5027094;28;19995;-69
2022/05/09 04:06:42;;;;;;;;;;;;;;;;;;5024792;28;20468;-68
2022/05/09 04:09:08;;;;;;;;;;;;;;;;;;5011132;28;20282;-68
2022/05/09 04:11:35;;;;;;;;;;;;;;;;;;5029134;28;20363;-68
2022/05/09 04:14:01;;;;;;;;;;;;;;;;;;5025479;28;19917;-68
2022/05/09 04:19:11;;;;;;;;;;;;;;;;;;5022279;28;19923;-68
2022/05/09 04:21:38;;;;;;;;;;;;;;;;;;5021252;28;19920;-70
2022/05/09 04:24:04;;;;;;;;;;;;;;;;;;5024067;28;19916;-70
2022/05/09 04:26:33;;;;;;;;;;;;;;;;;;5021883;28;19917;-69
2022/05/09 04:28:59;;;;;;;;;;;;;;;;;;5003976;28;19928;-69
2022/05/09 04:31:26;;;;;;;;;;;;;;;;;;5004210;28;20343;-70
2022/05/09 04:33:52;;;;;;;;;;;;;;;;;;5022970;28;20468;-70
2022/05/09 04:36:19;;;;;;;;;;;;;;;;;;5022471;28;19913;-69
2022/05/09 04:38:47;;;;;;;;;;;;;;;;;;5000704;28;19950;-69
2022/05/09 04:41:13;;;;;;;;;;;;;;;;;;5023425;28;19920;-69
2022/05/09 04:43:39;;;;;;;;;;;;;;;;;;5017712;28;19923;-69
2022/05/09 04:46:05;;;;;;;;;;;;;;;;;;5028320;28;20002;-69
2022/05/09 04:48:31;;;;;;;;;;;;;;;;;;5025221;28;20444;-69
2022/05/09 04:50:58;;;;;;;;;;;;;;;;;;5024995;28;21365;-69
2022/05/09 04:53:23;;;;;;;;;;;;;;;;;;5027558;28;20339;-67
2022/05/09 04:55:50;;;;;;;;;;;;;;;;;;5011396;28;20392;-69
2022/05/09 04:58:15;;;;;;;;;;;;;;;;;;5014230;28;20437;-69
2022/05/09 05:00:41;;;;;;;;;;;;;;;;;;5023976;28;19921;-67
2022/05/09 05:03:07;;;;;;;;;;;;;;;;;;5023485;28;20492;-67
2022/05/09 05:05:33;;;;;;;;;;;;;;;;;;5029394;28;19925;-68
2022/05/09 05:08:00;;;;;;;;;;;;;;;;;;5007645;28;20035;-68
2022/05/09 05:10:26;;;;;;;;;;;;;;;;;;5012180;28;19928;-69
2022/05/09 05:12:52;;;;;;;;;;;;;;;;;;5027428;28;20313;-68
2022/05/09 05:15:18;;;;;;;;;;;;;;;;;;5025851;28;20074;-68
2022/05/09 05:17:44;;;;;;;;;;;;;;;;;;5022746;28;20460;-69
2022/05/09 05:20:12;;;;;;;;;;;;;;;;;;5020552;28;19924;-68
2022/05/09 05:22:38;;;;;;;;;;;;;;;;;;5041783;28;19917;-68
2022/05/09 05:25:04;;;;;;;;;;;;;;;;;;5026135;28;19916;-68
2022/05/09 05:27:30;;;;;;;;;;;;;;;;;;5029921;28;19920;-70
2022/05/09 05:29:57;;;;;;;;;;;;;;;;;;5007306;28;19920;-70
2022/05/09 05:32:23;;;;;;;;;;;;;;;;;;5028181;28;19996;-68
2022/05/09 05:34:49;;;;;;;;;;;;;;;;;;5022907;28;20259;-68
2022/05/09 05:37:16;;;;;;;;;;;;;;;;;;5009888;28;19939;-68
2022/05/09 05:39:42;;;;;;;;;;;;;;;;;;5018020;28;20303;-68
2022/05/09 05:42:08;;;;;;;;;;;;;;;;;;5008183;28;20442;-67
2022/05/09 05:44:34;;;;;;;;;;;;;;;;;;5027715;28;19917;-67
2022/05/09 05:47:00;;;;;;;;;;;;;;;;;;5004442;28;20018;-68
2022/05/09 05:49:26;;;;;;;;;;;;;;;;;;5029718;28;19924;-68
2022/05/09 05:51:52;;;;;;;;;;;;;;;;;;5003478;28;19924;-67
2022/05/09 05:54:18;;;;;;;;;;;;;;;;;;5023509;28;20468;-68
2022/05/09 05:56:44;;;;;;;;;;;;;;;;;;5023006;28;19928;-68
2022/05/09 05:59:10;;;;;;;;;;;;;;;;;;5023391;28;20493;-68
2022/05/09 06:01:36;;;;;;;;;;;;;;;;;;5024475;28;20103;-68
2022/05/09 06:04:02;;;;;;;;;;;;;;;;;;5025860;28;20330;-68
2022/05/09 06:06:28;;;;;;;;;;;;;;;;;;5027377;28;19924;-68
2022/05/09 06:08:54;;;;;;;;;;;;;;;;;;5020497;28;21069;-68
2022/05/09 06:11:20;;;;;;;;;;;;;;;;;;5027381;28;20315;-68
2022/05/09 06:13:46;;;;;;;;;;;;;;;;;;5025651;28;20359;-67
2022/05/09 06:16:12;;;;;;;;;;;;;;;;;;5031021;28;20011;-68
2022/05/09 06:18:38;;;;;;;;;;;;;;;;;;5026186;28;19920;-67
2022/05/09 06:21:04;;;;;;;;;;;;;;;;;;5011657;28;19923;-69
2022/05/09 06:23:30;;;;;;;;;;;;;;;;;;5017753;28;19912;-69
2022/05/09 06:25:56;;;;;;;;;;;;;;;;;;5027520;28;20054;-69
2022/05/09 06:28:23;;;;;;;;;;;;;;;;;;5021411;28;19916;-69
2022/05/09 06:30:49;;;;;;;;;;;;;;;;;;5025459;28;19932;-68
2022/05/09 06:33:15;;;;;;;;;;;;;;;;;;5026631;28;20336;-68
2022/05/09 06:35:41;;;;;;;;;;;;;;;;;;5001940;28;20165;-67
2022/05/09 06:38:07;;;;;;;;;;;;;;;;;;5026975;28;20258;-68
2022/05/09 06:40:33;;;;;;;;;;;;;;;;;;5020822;28;19960;-67
2022/05/09 06:42:59;;;;;;;;;;;;;;;;;;5006012;28;19924;-68
2022/05/09 06:45:25;;;;;;;;;;;;;;;;;;5024857;28;19916;-68
2022/05/09 06:47:51;;;;;;;;;;;;;;;;;;5007572;28;20041;-68
2022/05/09 06:50:17;;;;;;;;;;;;;;;;;;5026191;28;20392;-68
2022/05/09 06:52:43;;;;;;;;;;;;;;;;;;5022612;28;19920;-69
2022/05/09 06:55:09;;;;;;;;;;;;;;;;;;5007400;28;19916;-68
2022/05/09 06:57:35;;;;;;;;;;;;;;;;;;5029669;28;19925;-69
2022/05/09 07:00:01;;;;;;;;;;;;;;;;;;5021894;28;20266;-69
2022/05/09 07:02:27;;;;;;;;;;;;;;;;;;5026683;28;19925;-69
2022/05/09 07:04:53;;;;;;;;;;;;;;;;;;5013872;28;19917;-69
2022/05/09 07:07:19;;;;;;;;;;;;;;;;;;5023365;28;20240;-68
2022/05/09 07:09:45;;;;;;;;;;;;;;;;;;5022064;28;20390;-68
2022/05/09 07:12:11;;;;;;;;;;;;;;;;;;5023258;28;20355;-68
2022/05/09 07:14:37;;;;;;;;;;;;;;;;;;5026232;28;19924;-68
2022/05/09 07:17:04;;;;;;;;;;;;;;;;;;5029011;28;19924;-68
2022/05/09 07:19:31;;;;;;;;;;;;;;;;;;5028873;28;20546;-68
2022/05/09 07:21:57;;;;;;;;;;;;;;;;;;5023147;28;20608;-68
2022/05/09 07:24:23;;;;;;;;;;;;;;;;;;5029517;28;20419;-68
2022/05/09 07:26:49;;;;;;;;;;;;;;;;;;5007256;28;19947;-69
2022/05/09 07:29:16;;;;;;;;;;;;;;;;;;5030248;28;20006;-68
2022/05/09 07:31:41;;;;;;;;;;;;;;;;;;5020313;28;20019;-68
2022/05/09 07:34:07;;;;;;;;;;;;;;;;;;5023834;28;19916;-68
2022/05/09 07:36:33;;;;;;;;;;;;;;;;;;5007593;28;19916;-68
2022/05/09 07:38:59;;;;;;;;;;;;;;;;;;5040400;28;19918;-68
2022/05/09 07:41:27;;;;;;;;;;;;;;;;;;5007947;28;20587;-68
2022/05/09 07:43:54;;;;;;;;;;;;;;;;;;5023761;28;20039;-68
2022/05/09 07:46:19;;;;;;;;;;;;;;;;;;5028078;28;19916;-68
2022/05/09 07:48:47;;;;;;;;;;;;;;;;;;5008495;28;20278;-68
2022/05/09 07:51:14;;;;;;;;;;;;;;;;;;5023442;28;20366;-68
2022/05/09 07:53:40;;;;;;;;;;;;;;;;;;5022281;28;20000;-67
2022/05/09 07:56:06;;;;;;;;;;;;;;;;;;5022377;28;19924;-68
2022/05/09 07:58:32;;;;;;;;;;;;;;;;;;5025295;28;20542;-68
2022/05/09 08:01:02;;;;;;;;;;;;;;;;;;5018156;28;21344;-68
2022/05/09 08:03:29;;;;;;;;;;;;;;;;;;5032799;28;19955;-68
2022/05/09 08:05:56;;;;;;;;;;;;;;;;;;5029911;28;19917;-67
2022/05/09 08:08:22;;;;;;;;;;;;;;;;;;5028142;28;19925;-68
2022/05/09 08:10:48;;;;;;;;;;;;;;;;;;5028064;28;19927;-68
2022/05/09 08:13:14;;;;;;;;;;;;;;;;;;5032416;28;20435;-68
2022/05/09 08:15:40;;;;;;;;;;;;;;;;;;5026358;28;19917;-68
2022/05/09 08:18:06;;;;;;;;;;;;;;;;;;5012931;28;19970;-68
2022/05/09 08:20:34;;;;;;;;;;;;;;;;;;5028410;28;19916;-69
2022/05/09 08:23:00;;;;;;;;;;;;;;;;;;5024200;28;19925;-68
2022/05/09 08:25:27;;;;;;;;;;;;;;;;;;5021263;28;20430;-68
2022/05/09 08:27:53;;;;;;;;;;;;;;;;;;5032880;28;19920;-69
2022/05/09 08:30:18;;;;;;;;;;;;;;;;;;5036803;28;19955;-68
2022/05/09 08:32:44;;;;;;;;;;;;;;;;;;5025997;28;19924;-68
2022/05/09 08:35:10;;;;;;;;;;;;;;;;;;5031674;28;20312;-68
2022/05/09 08:37:36;;;;;;;;;;;;;;;;;;5028892;28;20604;-68
2022/05/09 08:40:02;;;;;;;;;;;;;;;;;;5007405;28;20362;-68
2022/05/09 08:42:28;;;;;;;;;;;;;;;;;;5032244;28;19916;-68
2022/05/09 08:44:56;;;;;;;;;;;;;;;;;;5008800;28;20331;-68
2022/05/09 08:47:22;;;;;;;;;;;;;;;;;;5028687;28;20019;-68
2022/05/09 08:49:48;;;;;;;;;;;;;;;;;;5030305;28;19923;-68
2022/05/09 08:52:14;;;;;;;;;;;;;;;;;;5029856;28;20019;-68
2022/05/09 08:54:40;;;;;;;;;;;;;;;;;;5021369;28;20338;-68
2022/05/09 08:57:06;;;;;;;;;;;;;;;;;;5010344;28;19928;-68
2022/05/09 08:59:32;;;;;;;;;;;;;;;;;;5008779;28;20358;-68
2022/05/09 09:01:58;;;;;;;;;;;;;;;;;;5024235;28;21387;-68
2022/05/09 09:04:24;;;;;;;;;;;;;;;;;;5023136;28;19916;-68
2022/05/09 09:06:50;;;;;;;;;;;;;;;;;;5025290;28;20363;-69
2022/05/09 09:09:16;;;;;;;;;;;;;;;;;;5035518;28;19928;-68
2022/05/09 09:11:42;;;;;;;;;;;;;;;;;;5010372;28;20335;-68
2022/05/09 09:14:08;;;;;;;;;;;;;;;;;;5029412;28;19921;-68
2022/05/09 09:16:34;;;;;;;;;;;;;;;;;;5029460;28;19916;-68
2022/05/09 09:19:00;;;;;;;;;;;;;;;;;;5006802;28;19932;-68
2022/05/09 09:21:26;;;;;;;;;;;;;;;;;;5022190;28;19962;-68
2022/05/09 09:23:52;;;;;;;;;;;;;;;;;;5023674;28;19917;-68
2022/05/09 09:26:21;;;;;;;;;;;;;;;;;;5029553;28;19944;-67
2022/05/09 09:28:47;;;;;;;;;;;;;;;;;;5025056;28;19921;-68
2022/05/09 09:31:13;;;;;;;;;;;;;;;;;;5027613;28;19935;-68
2022/05/09 09:33:39;;;;;;;;;;;;;;;;;;5004454;28;19923;-68
2022/05/09 09:36:05;;;;;;;;;;;;;;;;;;5026796;28;20458;-68
2022/05/09 09:38:31;;;;;;;;;;;;;;;;;;5027124;28;19916;-68
2022/05/09 09:40:57;;;;;;;;;;;;;;;;;;5023087;28;20277;-68
2022/05/09 09:43:23;;;;;;;;;;;;;;;;;;5023194;28;19963;-68
2022/05/09 09:45:54;;;;;;;;;;;;;;;;;;5009096;28;19951;-68
2022/05/09 09:48:20;;;;;;;;;;;;;;;;;;5026904;28;19916;-68
2022/05/09 09:50:47;;;;;;;;;;;;;;;;;;5025429;28;19928;-67
2022/05/09 09:53:13;;;;;;;;;;;;;;;;;;5024876;28;20691;-68
2022/05/09 09:55:39;;;;;;;;;;;;;;;;;;5019613;28;19925;-70
2022/05/09 09:58:05;;;;;;;;;;;;;;;;;;5007393;28;20138;-69
2022/05/09 10:00:34;;;;;;;;;;;;;;;;;;5022658;28;20013;-70
2022/05/09 10:03:00;;;;;;;;;;;;;;;;;;5026263;28;20015;-69
2022/05/09 10:05:26;;;;;;;;;;;;;;;;;;5029902;28;19947;-69
2022/05/09 10:07:52;;;;;;;;;;;;;;;;;;5023472;28;19971;-69
2022/05/09 10:10:18;;;;;;;;;;;;;;;;;;5027707;28;20360;-69
2022/05/09 10:12:55;;;;;;;;;;;;;;;;;;4991013;28;23426;-69
2022/05/09 10:15:21;;;;;;;;;;;;;;;;;;5026125;28;19917;-70
2022/05/09 10:17:47;;;;;;;;;;;;;;;;;;5019364;28;19917;-69
2022/05/09 10:20:13;;;;;;;;;;;;;;;;;;5026561;28;19949;-69
2022/05/09 10:25:24;;;;;;;;;;;;;;;;;;5031770;28;19945;-68
2022/05/09 10:27:52;;;;;;;;;;;;;;;;;;5030737;28;19920;-70
2022/05/09 10:30:18;;;;;;;;;;;;;;;;;;5026164;28;20428;-68
2022/05/09 10:32:44;;;;;;;;;;;;;;;;;;5009615;28;19920;-68
2022/05/09 10:35:10;;;;;;;;;;;;;;;;;;5022930;28;20370;-68
2022/05/09 10:37:40;;;;;;;;;;;;;;;;;;5031160;28;20372;-68
2022/05/09 10:40:06;;;;;;;;;;;;;;;;;;5013303;28;20070;-68
2022/05/09 10:42:34;;;;;;;;;;;;;;;;;;5037537;28;19924;-68
2022/05/09 10:45:04;;;;;;;;;;;;;;;;;;5024058;28;20636;-70
2022/05/09 10:47:30;;;;;;;;;;;;;;;;;;5033784;28;20366;-69
2022/05/09 10:49:56;;;;;;;;;;;;;;;;;;5009332;28;19958;-69
2022/05/09 10:52:22;;;;;;;;;;;;;;;;;;5012964;28;19924;-68
2022/05/09 10:54:49;;;;;;;;;;;;;;;;;;4999855;28;19917;-68
2022/05/09 10:57:15;;;;;;;;;;;;;;;;;;5025136;28;20359;-69
2022/05/09 10:59:42;;;;;;;;;;;;;;;;;;5007026;28;20268;-68
2022/05/09 11:02:07;;;;;;;;;;;;;;;;;;5006770;28;19917;-68
2022/05/09 11:04:33;;;;;;;;;;;;;;;;;;5022967;28;20678;-68
2022/05/09 11:06:59;;;;;;;;;;;;;;;;;;5021367;28;19932;-68
2022/05/09 11:09:25;;;;;;;;;;;;;;;;;;5006939;28;19916;-69
2022/05/09 11:11:51;;;;;;;;;;;;;;;;;;5001542;28;20480;-69
2022/05/09 11:14:19;;;;;;;;;;;;;;;;;;5024176;28;19921;-69
2022/05/09 11:16:45;;;;;;;;;;;;;;;;;;5017252;28;19984;-68
2022/05/09 11:19:14;;;;;;;;;;;;;;;;;;5003942;28;19921;-68
2022/05/09 11:21:40;;;;;;;;;;;;;;;;;;4974039;28;19921;-68
2022/05/09 11:24:06;;;;;;;;;;;;;;;;;;4989626;28;19917;-68
2022/05/09 11:26:32;;;;;;;;;;;;;;;;;;5024185;28;20489;-68
2022/05/09 11:28:58;;;;;;;;;;;;;;;;;;5005349;28;19917;-68
2022/05/09 11:31:24;;;;;;;;;;;;;;;;;;5029228;28;19920;-68
2022/05/09 11:33:50;;;;;;;;;;;;;;;;;;5007113;28;19956;-67
2022/05/09 11:36:16;;;;;;;;;;;;;;;;;;5024060;28;20102;-68
2022/05/09 11:38:41;;;;;;;;;;;;;;;;;;5031190;28;19916;-68
2022/05/09 11:41:08;;;;;;;;;;;;;;;;;;5013115;28;19913;-68
2022/05/09 11:43:36;;;;;;;;;;;;;;;;;;5033230;28;19920;-68
2022/05/09 11:46:02;;;;;;;;;;;;;;;;;;5028376;28;19917;-68
2022/05/09 11:48:28;;;;;;;;;;;;;;;;;;5026861;28;20285;-68
2022/05/09 11:50:56;;;;;;;;;;;;;;;;;;5011034;28;20374;-70
2022/05/09 11:53:22;;;;;;;;;;;;;;;;;;5030551;28;20426;-70
2022/05/09 11:55:48;;;;;;;;;;;;;;;;;;5026321;28;20354;-69
2022/05/09 11:58:16;;;;;;;;;;;;;;;;;;4967765;28;20042;-70
2022/05/09 12:00:44;;;;;;;;;;;;;;;;;;4973329;28;19967;-70
2022/05/09 12:03:10;;;;;;;;;;;;;;;;;;4966542;28;19917;-72
2022/05/09 12:05:37;;;;;;;;;;;;;;;;;;4968438;28;19913;-69
2022/05/09 12:08:03;;;;;;;;;;;;;;;;;;4953293;28;19925;-68
2022/05/09 12:10:30;;;;;;;;;;;;;;;;;;4966862;28;19924;-71
2022/05/09 12:12:56;;;;;;;;;;;;;;;;;;4952939;28;19917;-70
2022/05/09 12:15:22;;;;;;;;;;;;;;;;;;4966419;28;19960;-70
2022/05/09 12:17:50;;;;;;;;;;;;;;;;;;4944149;28;19917;-69
2022/05/09 12:20:16;;;;;;;;;;;;;;;;;;4948304;28;20174;-69
2022/05/09 12:22:42;;;;;;;;;;;;;;;;;;4949131;28;20244;-69
2022/05/09 12:25:12;;;;;;;;;;;;;;;;;;4954716;28;19917;-70
2022/05/09 12:27:38;;;;;;;;;;;;;;;;;;4954882;28;19925;-68
2022/05/09 12:30:04;;;;;;;;;;;;;;;;;;4973010;28;20441;-68
2022/05/09 12:32:30;;;;;;;;;;;;;;;;;;4960417;28;19945;-68
2022/05/09 12:34:56;;;;;;;;;;;;;;;;;;4980459;28;20249;-68
2022/05/09 12:37:24;;;;;;;;;;;;;;;;;;5015194;28;20176;-69
2022/05/09 12:39:50;;;;;;;;;;;;;;;;;;5013880;28;19917;-68
2022/05/09 12:42:16;;;;;;;;;;;;;;;;;;5010908;28;20020;-68
2022/05/09 12:44:43;;;;;;;;;;;;;;;;;;5009909;28;19924;-68
2022/05/09 12:47:09;;;;;;;;;;;;;;;;;;5012883;28;19920;-69
2022/05/09 12:49:35;;;;;;;;;;;;;;;;;;5012202;28;19983;-69
2022/05/09 12:52:01;;;;;;;;;;;;;;;;;;5015497;28;19921;-70
2022/05/09 12:54:27;;;;;;;;;;;;;;;;;;5015586;28;19992;-68
2022/05/09 12:56:53;;;;;;;;;;;;;;;;;;5008323;28;19932;-69
2022/05/09 12:59:19;;;;;;;;;;;;;;;;;;5009318;28;20247;-68
2022/05/09 13:01:45;;;;;;;;;;;;;;;;;;5007671;28;20035;-69
2022/05/09 13:04:14;;;;;;;;;;;;;;;;;;5014819;28;19917;-68
2022/05/09 13:06:40;;;;;;;;;;;;;;;;;;5015199;28;20028;-68
2022/05/09 13:09:06;;;;;;;;;;;;;;;;;;5030579;28;19923;-68
2022/05/09 13:11:33;;;;;;;;;;;;;;;;;;5014620;28;20424;-70
2022/05/09 13:13:59;;;;;;;;;;;;;;;;;;5015623;28;19948;-68
2022/05/09 13:16:25;;;;;;;;;;;;;;;;;;5015494;28;19917;-70
2022/05/09 13:18:51;;;;;;;;;;;;;;;;;;5027445;28;20474;-70
2022/05/09 13:21:18;;;;;;;;;;;;;;;;;;5032709;28;20272;-69
2022/05/09 13:23:44;;;;;;;;;;;;;;;;;;5030786;28;19923;-69
2022/05/09 13:26:09;;;;;;;;;;;;;;;;;;5016008;28;19921;-68
2022/05/09 13:28:35;;;;;;;;;;;;;;;;;;5015123;28;19924;-69
2022/05/09 13:31:01;;;;;;;;;;;;;;;;;;5029622;28;20037;-69
2022/05/09 13:33:28;;;;;;;;;;;;;;;;;;5031472;28;20371;-69
2022/05/09 13:35:53;;;;;;;;;;;;;;;;;;5024919;28;20505;-69
2022/05/09 13:38:19;;;;;;;;;;;;;;;;;;5030401;28;19921;-68
2022/05/09 13:40:46;;;;;;;;;;;;;;;;;;5025445;28;20500;-68
2022/05/09 13:43:11;;;;;;;;;;;;;;;;;;5035583;28;20448;-68
2022/05/09 13:45:38;;;;;;;;;;;;;;;;;;5031740;28;19916;-68
2022/05/09 13:48:04;;;;;;;;;;;;;;;;;;5030413;28;19951;-68
2022/05/09 13:50:30;;;;;;;;;;;;;;;;;;5032748;28;20469;-67
2022/05/09 13:52:56;;;;;;;;;;;;;;;;;;5024656;28;20728;-69
2022/05/09 13:55:22;;;;;;;;;;;;;;;;;;5026713;28;20370;-68
2022/05/09 13:57:48;;;;;;;;;;;;;;;;;;5030955;28;19928;-68
2022/05/09 14:00:14;;;;;;;;;;;;;;;;;;5031547;28;20312;-68
2022/05/09 14:02:40;;;;;;;;;;;;;;;;;;5029257;28;19917;-69
2022/05/09 14:05:06;;;;;;;;;;;;;;;;;;5017564;28;20283;-68
2022/05/09 14:07:41;;;;;;;;;;;;;;;;;;5009744;28;19924;-67
2022/05/09 14:10:07;;;;;;;;;;;;;;;;;;5007036;28;19917;-67
2022/05/09 14:12:33;;;;;;;;;;;;;;;;;;5014136;28;19979;-68
2022/05/09 14:14:59;;;;;;;;;;;;;;;;;;5011138;28;20595;-68
2022/05/09 14:17:25;;;;;;;;;;;;;;;;;;5014533;28;19917;-67
2022/05/09 14:19:51;;;;;;;;;;;;;;;;;;5008484;28;19954;-70
2022/05/09 14:22:17;;;;;;;;;;;;;;;;;;5010830;28;20430;-70
2022/05/09 14:29:36;;;;;;;;;;;;;;;;;;5008440;28;19925;-68
2022/05/09 14:30:13;;;;;;;;;;;;;;;;;;5011125;28;19986;-68
2022/05/09 14:32:42;;;;;;;;;;;;;;;;;;5013107;28;20406;-68
2022/05/09 14:35:09;;;;;;;;;;;;;;;;;;5007852;28;19917;-69
2022/05/09 14:37:35;;;;;;;;;;;;;;;;;;5006384;28;19966;-68
2022/05/09 14:40:01;;;;;;;;;;;;;;;;;;5010188;28;20355;-68
2022/05/09 14:42:33;;;;;;;;;;;;;;;;;;5011101;28;19921;-67
2022/05/09 14:44:59;;;;;;;;;;;;;;;;;;5007009;28;19922;-68
2022/05/09 14:47:26;;;;;;;;;;;;;;;;;;5013462;28;19924;-68
2022/05/09 14:49:52;;;;;;;;;;;;;;;;;;5006232;28;20036;-71
2022/05/09 14:52:18;;;;;;;;;;;;;;;;;;5010202;28;19921;-73
2022/05/09 14:54:44;;;;;;;;;;;;;;;;;;5007112;28;19921;-65
2022/05/09 14:57:25;;;;;;;;;;;;;;;;;;5011876;28;19928;-67
2022/05/09 14:59:51;;;;;;;;;;;;;;;;;;5009103;28;19956;-66
2022/05/09 15:02:17;;;;;;;;;;;;;;;;;;5011528;28;20016;-66
2022/05/09 15:04:43;;;;;;;;;;;;;;;;;;5005192;28;20319;-67
2022/05/09 15:07:10;;;;;;;;;;;;;;;;;;5021815;28;20039;-67
2022/05/09 15:09:36;;;;;;;;;;;;;;;;;;5029477;28;19978;-67
2022/05/09 15:12:02;;;;;;;;;;;;;;;;;;5029944;28;19929;-66
2022/05/09 15:14:28;;;;;;;;;;;;;;;;;;5037718;28;20401;-67
2022/05/09 15:16:54;;;;;;;;;;;;;;;;;;5033992;28;19991;-68
2022/05/09 15:19:25;;;;;;;;;;;;;;;;;;5035578;28;19916;-66
2022/05/09 15:21:51;;;;;;;;;;;;;;;;;;5034533;28;19999;-65
2022/05/09 15:24:17;;;;;;;;;;;;;;;;;;5037282;28;20447;-67
2022/05/09 15:26:43;;;;;;;;;;;;;;;;;;5035376;28;20876;-66
2022/05/09 15:29:09;;;;;;;;;;;;;;;;;;5037259;28;19924;-66
2022/05/09 15:31:37;;;;;;;;;;;;;;;;;;5034141;28;19924;-66
2022/05/09 15:34:03;;;;;;;;;;;;;;;;;;5035479;28;19917;-66
2022/05/09 15:36:31;;;;;;;;;;;;;;;;;;5034088;28;19917;-66
2022/05/09 15:38:57;;;;;;;;;;;;;;;;;;5032997;28;19960;-66
2022/05/09 15:41:25;;;;;;;;;;;;;;;;;;5033913;28;20015;-66
2022/05/09 15:43:52;;;;;;;;;;;;;;;;;;5032273;28;20556;-67
2022/05/09 15:46:18;;;;;;;;;;;;;;;;;;5017440;28;20030;-67
2022/05/09 15:48:44;;;;;;;;;;;;;;;;;;5033023;28;20023;-67
2022/05/09 15:51:11;;;;;;;;;;;;;;;;;;5037649;28;19920;-67
2022/05/09 15:53:37;;;;;;;;;;;;;;;;;;5037975;28;20522;-67
2022/05/09 15:56:03;;;;;;;;;;;;;;;;;;5032159;28;20685;-67
2022/05/09 15:58:28;;;;;;;;;;;;;;;;;;5017282;28;20012;-67
2022/05/09 16:00:55;;;;;;;;;;;;;;;;;;5029657;28;19920;-67
2022/05/09 16:03:26;;;;;;;;;;;;;;;;;;5038830;28;19995;-67
2022/05/09 16:11:25;;;;;;;;;;;;;;;;;;4994617;28;19928;-65
2022/05/09 16:13:51;;;;;;;;;;;;;;;;;;5008842;28;20386;-66
2022/05/09 16:16:18;;;;;;;;;;;;;;;;;;4996392;28;19917;-66
2022/05/09 16:18:43;;;;;;;;;;;;;;;;;;5004381;28;19917;-65
2022/05/09 16:21:09;;;;;;;;;;;;;;;;;;4997236;28;19995;-68
2022/05/09 16:23:36;;;;;;;;;;;;;;;;;;4996344;28;19956;-69
2022/05/09 16:26:03;;;;;;;;;;;;;;;;;;4989403;28;20470;-64
2022/05/09 16:28:29;;;;;;;;;;;;;;;;;;4989781;28;19937;-64
2022/05/09 16:30:55;;;;;;;;;;;;;;;;;;4989616;28;19925;-64
2022/05/09 16:33:21;;;;;;;;;;;;;;;;;;4992589;28;20205;-66
2022/05/09 16:35:49;;;;;;;;;;;;;;;;;;4987420;28;20016;-63
2022/05/09 16:38:15;;;;;;;;;;;;;;;;;;5002162;28;19971;-64
2022/05/09 16:40:41;;;;;;;;;;;;;;;;;;4994207;28;19999;-64
2022/05/09 16:43:08;;;;;;;;;;;;;;;;;;4989987;28;19925;-64
2022/05/09 16:45:35;;;;;;;;;;;;;;;;;;4993679;28;20427;-66
2022/05/09 16:48:01;;;;;;;;;;;;;;;;;;4990324;28;19917;-64
2022/05/09 16:50:27;;;;;;;;;;;;;;;;;;4992406;28;20350;-64
2022/05/09 16:52:53;;;;;;;;;;;;;;;;;;4989286;28;20298;-64
2022/05/09 16:55:19;;;;;;;;;;;;;;;;;;4991504;28;20330;-63
2022/05/09 16:57:45;;;;;;;;;;;;;;;;;;4987099;28;19921;-67
2022/05/09 17:00:11;;;;;;;;;;;;;;;;;;4992984;28;19922;-66
2022/05/09 17:02:37;;;;;;;;;;;;;;;;;;4993879;28;19944;-65